Tacoma Park, South Dakota
Current Conditions -  °F | °C
As of 11:53 PM on Friday 19 Dec 2014 (Local Time) from KABR Reporting Station
Haze Haze  
Wind Chill: 18°   Ceiling: 500
Heat Index: 29°   Visibility: 5mi
Dew Point: 25°   Wind: 14mph
Humidity: 85%   Direction: 200°SSW
Pressure: 30.01"   Gusts: NA
Location:  45.6832°N, 98.2967°W
Report Text: KABR 200553Z AUTO 20012KT 5SM BR OVC005 M02/M04 A3001 RMK AO2 SLP180 T10171039 11011 21017 410061028 55000
Loading
Personal Weather Stations






























Interactive Weather Map New forecast layout! Learn more

10-Day Weather Forecast

Advertisements
Track Severe Weather on mobile